createdAt,value
2018-12-07T00:01:36.147Z,0.97
2018-12-07T00:04:05.185Z,0.93
2018-12-07T00:06:33.972Z,0.90
2018-12-07T00:09:03.885Z,0.82
2018-12-07T00:11:32.702Z,0.87
2018-12-07T00:14:01.640Z,0.81
2018-12-07T00:16:30.632Z,0.85
2018-12-07T00:18:59.647Z,0.89
2018-12-07T00:21:28.639Z,0.85
2018-12-07T00:23:57.528Z,0.92
2018-12-07T00:26:26.363Z,0.94
2018-12-07T00:28:55.233Z,0.88
2018-12-07T00:31:24.034Z,0.88
2018-12-07T00:33:53.110Z,0.86
2018-12-07T00:36:21.862Z,0.80
2018-12-07T00:38:50.859Z,0.78
2018-12-07T00:41:19.644Z,0.74
2018-12-07T00:43:48.559Z,0.64
2018-12-07T00:46:17.416Z,0.64
2018-12-07T00:48:46.464Z,0.64
2018-12-07T00:51:15.727Z,0.55
2018-12-07T00:53:44.848Z,0.40
2018-12-07T00:56:14.059Z,0.35
2018-12-07T00:58:42.952Z,0.16
2018-12-07T01:01:12.141Z,0.15
2018-12-07T01:03:41.226Z,0.21
2018-12-07T01:06:10.566Z,0.29
2018-12-07T01:08:39.767Z,0.28
2018-12-07T01:11:08.753Z,0.27
2018-12-07T01:13:37.927Z,0.22
2018-12-07T01:16:07.207Z,0.13
2018-12-07T01:18:36.281Z,0.17
2018-12-07T01:21:05.209Z,0.19
2018-12-07T01:23:34.143Z,0.02
2018-12-07T01:26:03.285Z,0.15
2018-12-07T01:28:32.096Z,0.10
2018-12-07T01:31:01.537Z,0.10
2018-12-07T01:33:30.804Z,0.03
2018-12-07T01:35:59.751Z,-0.08
2018-12-07T01:38:28.854Z,-0.14
2018-12-07T01:40:58.183Z,-0.22
2018-12-07T01:43:27.262Z,-0.23
2018-12-07T01:45:56.451Z,-0.25
2018-12-07T01:48:25.371Z,-0.22
2018-12-07T01:50:54.600Z,-0.19
2018-12-07T01:53:23.707Z,-0.26
2018-12-07T01:55:52.683Z,-0.32
2018-12-07T01:58:21.784Z,-0.34
2018-12-07T02:00:50.814Z,-0.41
2018-12-07T02:03:20.058Z,-0.57
2018-12-07T02:05:49.207Z,-0.52
2018-12-07T02:08:18.392Z,-0.29
2018-12-07T02:10:47.468Z,-0.35
2018-12-07T02:13:16.760Z,-0.48
2018-12-07T02:15:46.108Z,-0.53
2018-12-07T02:18:15.198Z,-0.53
2018-12-07T02:20:43.952Z,-0.50
2018-12-07T02:23:13.222Z,-0.52
2018-12-07T02:25:42.375Z,-0.60
2018-12-07T02:28:11.619Z,-0.65
2018-12-07T02:30:40.765Z,-0.74
2018-12-07T02:33:09.860Z,-0.77
2018-12-07T02:35:39.042Z,-0.67
2018-12-07T02:38:08.364Z,-0.74
2018-12-07T02:40:37.608Z,-0.81
2018-12-07T02:43:06.826Z,-0.83
2018-12-07T02:45:35.955Z,-0.82
2018-12-07T02:48:04.864Z,-0.87
2018-12-07T02:50:34.115Z,-0.96
2018-12-07T02:53:03.214Z,-0.78
2018-12-07T02:55:32.383Z,-0.82
2018-12-07T02:58:01.535Z,-0.90
2018-12-07T03:00:30.695Z,-0.94
2018-12-07T03:02:59.768Z,-1.06
2018-12-07T03:05:28.624Z,-0.85
2018-12-07T03:07:57.775Z,-0.88
2018-12-07T03:10:26.904Z,-0.96
2018-12-07T03:12:55.809Z,-0.98
2018-12-07T03:15:25.027Z,-0.98
2018-12-07T03:17:54.029Z,-0.94
2018-12-07T03:20:23.320Z,-0.95
2018-12-07T03:22:52.399Z,-1.04
2018-12-07T03:25:21.627Z,-0.96
2018-12-07T03:27:50.911Z,-0.90
2018-12-07T03:30:20.156Z,-0.84
2018-12-07T03:32:49.433Z,-0.78
2018-12-07T03:35:18.726Z,-0.86
2018-12-07T03:37:47.553Z,-0.95
2018-12-07T03:40:16.484Z,-1.11
2018-12-07T03:42:45.646Z,-1.25
2018-12-07T03:45:14.742Z,-1.27
2018-12-07T03:47:43.939Z,-1.25
2018-12-07T03:50:12.795Z,-1.31
2018-12-07T03:52:41.991Z,-1.36
2018-12-07T03:55:11.142Z,-1.42
2018-12-07T03:57:40.328Z,-1.47
2018-12-07T04:00:09.773Z,-1.29
2018-12-07T04:02:39.028Z,-1.32
2018-12-07T04:05:08.180Z,-1.38
2018-12-07T04:07:37.377Z,-1.39
2018-12-07T04:10:06.676Z,-1.31
2018-12-07T04:12:35.773Z,-1.33
2018-12-07T04:15:05.374Z,-1.36
2018-12-07T04:17:34.381Z,-1.40
2018-12-07T04:20:03.764Z,-1.40
2018-12-07T04:22:32.764Z,-1.40
2018-12-07T04:25:01.728Z,-1.36
2018-12-07T04:27:30.663Z,-1.42
2018-12-07T04:30:10.482Z,-1.43
2018-12-07T04:32:39.538Z,-1.40
2018-12-07T04:35:08.380Z,-1.47
2018-12-07T04:37:37.268Z,-1.35
2018-12-07T04:40:06.332Z,-1.42
2018-12-07T04:42:35.275Z,-1.50
2018-12-07T04:45:04.520Z,-1.50
2018-12-07T04:47:33.418Z,-1.49
2018-12-07T04:50:03.281Z,-1.52
2018-12-07T04:52:32.243Z,-1.51
2018-12-07T04:55:01.160Z,-1.52
2018-12-07T04:57:30.228Z,-1.51
2018-12-07T04:59:59.108Z,-1.49
2018-12-07T05:02:27.948Z,-1.62
2018-12-07T05:04:56.820Z,-1.70
2018-12-07T05:07:25.696Z,-1.70
2018-12-07T05:09:54.658Z,-1.67
2018-12-07T05:12:23.549Z,-1.72
2018-12-07T05:14:52.396Z,-1.78
2018-12-07T05:17:21.657Z,-1.90
2018-12-07T05:19:50.728Z,-1.81
2018-12-07T05:22:19.909Z,-1.69
2018-12-07T05:24:49.126Z,-1.76
2018-12-07T05:27:18.370Z,-1.85
2018-12-07T05:29:47.480Z,-1.94
2018-12-07T05:32:16.678Z,-1.94
2018-12-07T05:34:45.728Z,-1.91
2018-12-07T05:37:14.751Z,-1.88
2018-12-07T05:39:43.610Z,-1.78
2018-12-07T05:42:12.478Z,-1.73
2018-12-07T05:44:41.803Z,-1.67
2018-12-07T05:47:10.883Z,-1.56
2018-12-07T05:49:39.771Z,-1.46
2018-12-07T05:52:08.557Z,-1.29
2018-12-07T05:54:37.664Z,-1.17
2018-12-07T05:57:06.841Z,-1.15
2018-12-07T05:59:36.119Z,-0.99
2018-12-07T06:02:05.238Z,-0.94
2018-12-07T06:04:34.123Z,-0.97
2018-12-07T06:07:03.319Z,-1.17
2018-12-07T06:09:33.056Z,-1.26
2018-12-07T06:12:02.152Z,-1.05
2018-12-07T06:14:31.369Z,-1.07
2018-12-07T06:17:00.376Z,-1.12
2018-12-07T06:19:29.253Z,-1.04
2018-12-07T06:21:58.200Z,-0.99
2018-12-07T06:24:26.986Z,-0.87
2018-12-07T06:26:55.808Z,-0.91
2018-12-07T06:29:24.781Z,-0.96
2018-12-07T06:31:53.776Z,-0.91
2018-12-07T06:34:23.064Z,-0.84
2018-12-07T06:36:52.271Z,-0.82
2018-12-07T06:39:21.164Z,-0.99
2018-12-07T06:41:50.509Z,-0.87
2018-12-07T06:44:19.265Z,-0.60
2018-12-07T06:46:48.188Z,-0.58
2018-12-07T06:49:17.132Z,-0.62
2018-12-07T06:51:46.160Z,-0.49
2018-12-07T06:54:15.014Z,-0.42
2018-12-07T06:56:43.954Z,-0.34
2018-12-07T06:59:12.818Z,-0.04
2018-12-07T07:01:42.080Z,0.11
2018-12-07T07:04:10.987Z,0.11
2018-12-07T07:06:40.138Z,-0.02
2018-12-07T07:09:09.618Z,0.08
2018-12-07T07:11:38.925Z,0.11
2018-12-07T07:14:07.980Z,0.58
2018-12-07T07:16:37.162Z,0.83
2018-12-07T07:19:06.405Z,1.04
2018-12-07T07:21:35.552Z,1.13
2018-12-07T07:24:04.792Z,1.22
2018-12-07T07:26:34.038Z,1.18
2018-12-07T07:29:03.190Z,1.29
2018-12-07T07:31:32.096Z,1.33
2018-12-07T07:34:01.143Z,1.46
2018-12-07T07:36:30.032Z,1.56
2018-12-07T07:38:58.922Z,1.62
2018-12-07T07:41:27.892Z,1.70
2018-12-07T07:43:56.823Z,1.70
2018-12-07T07:46:25.795Z,1.62
2018-12-07T07:48:54.686Z,1.55
2018-12-07T07:51:23.677Z,1.58
2018-12-07T07:53:52.497Z,1.65
2018-12-07T07:56:21.562Z,1.86
2018-12-07T07:58:50.484Z,2.09
2018-12-07T08:01:19.401Z,2.28
2018-12-07T08:03:48.269Z,2.54
2018-12-07T08:06:17.223Z,2.68
2018-12-07T08:08:46.195Z,2.88
2018-12-07T08:11:15.083Z,3.07
2018-12-07T08:13:43.890Z,3.26
2018-12-07T08:16:12.987Z,3.42
2018-12-07T08:18:41.899Z,3.57
2018-12-07T08:21:10.867Z,3.78
2018-12-07T08:23:39.724Z,4.02
2018-12-07T08:26:08.749Z,4.24
2018-12-07T08:28:37.585Z,4.36
2018-12-07T08:31:06.531Z,4.70
2018-12-07T08:33:35.522Z,5.25
2018-12-07T08:36:04.456Z,5.86
2018-12-07T08:38:33.404Z,6.39
2018-12-07T08:41:02.319Z,7.14
2018-12-07T08:43:31.182Z,7.79
2018-12-07T08:46:00.103Z,8.23
2018-12-07T08:48:29.066Z,8.42
2018-12-07T08:50:57.984Z,8.46
2018-12-07T08:53:26.862Z,8.34
2018-12-07T08:55:55.722Z,8.63
2018-12-07T08:58:24.520Z,9.09
2018-12-07T09:00:53.411Z,9.73
2018-12-07T09:03:22.239Z,10.25
2018-12-07T09:05:51.232Z,10.59
2018-12-07T09:08:20.132Z,10.81
2018-12-07T09:10:49.116Z,10.62
2018-12-07T09:13:17.892Z,10.63
2018-12-07T09:15:46.710Z,9.99
2018-12-07T09:18:15.515Z,9.65
2018-12-07T09:20:44.368Z,9.50
2018-12-07T09:23:13.318Z,9.51
2018-12-07T09:25:42.206Z,9.36
2018-12-07T09:28:11.069Z,9.06
2018-12-07T09:30:41.226Z,9.18
2018-12-07T09:33:10.317Z,9.26
2018-12-07T09:35:39.407Z,9.60
2018-12-07T09:38:13.185Z,10.13
2018-12-07T09:40:39.234Z,10.57
2018-12-07T09:43:08.082Z,10.97
2018-12-07T09:45:36.860Z,10.87
2018-12-07T09:48:05.719Z,10.06
2018-12-07T09:50:34.689Z,9.56
2018-12-07T09:53:03.552Z,10.39
2018-12-07T09:55:32.379Z,11.02
2018-12-07T09:58:01.200Z,11.04
2018-12-07T10:00:29.981Z,11.03
2018-12-07T10:02:58.784Z,11.28
2018-12-07T10:05:27.721Z,11.67
2018-12-07T10:07:56.614Z,11.97
2018-12-07T10:10:25.579Z,12.08
2018-12-07T10:12:54.494Z,12.15
2018-12-07T10:15:23.387Z,12.27
2018-12-07T10:17:52.220Z,12.59
2018-12-07T10:20:21.259Z,13.11
2018-12-07T10:22:50.159Z,13.53
2018-12-07T10:25:19.117Z,13.92
2018-12-07T10:27:48.044Z,14.22
2018-12-07T10:30:16.851Z,13.85
2018-12-07T10:32:45.720Z,14.47
2018-12-07T10:35:14.606Z,14.21
2018-12-07T10:37:43.700Z,14.66
2018-12-07T10:40:12.585Z,14.81
2018-12-07T10:42:41.583Z,14.93
2018-12-07T10:45:10.561Z,15.40
2018-12-07T10:47:39.568Z,16.05
2018-12-07T10:50:08.495Z,16.04
2018-12-07T10:52:37.449Z,16.38
2018-12-07T10:55:08.068Z,16.71
2018-12-07T10:57:37.416Z,15.42
2018-12-07T11:00:09.064Z,14.84
2018-12-07T11:02:43.323Z,15.94
2018-12-07T11:05:17.348Z,16.70
2018-12-07T11:07:51.551Z,17.94
2018-12-07T11:10:25.819Z,18.79
2018-12-07T11:12:59.936Z,20.58
2018-12-07T11:15:34.118Z,21.90
2018-12-07T11:18:08.293Z,22.65
2018-12-07T11:20:42.207Z,22.38
2018-12-07T11:23:16.454Z,22.26
2018-12-07T11:25:50.477Z,22.92
2018-12-07T11:28:24.412Z,23.73
2018-12-07T11:30:58.668Z,23.82
2018-12-07T11:33:31.980Z,23.23
2018-12-07T11:50:36.073Z,16.79
2018-12-07T11:53:05.214Z,15.90
2018-12-07T11:55:34.381Z,15.51
2018-12-07T11:58:03.570Z,15.04
2018-12-07T12:00:32.467Z,14.45
2018-12-07T12:03:01.564Z,14.03
2018-12-07T12:05:30.521Z,13.63
2018-12-07T12:07:59.585Z,13.07
2018-12-07T12:10:28.807Z,12.71
2018-12-07T12:12:57.956Z,12.60
2018-12-07T12:15:27.162Z,12.59
2018-12-07T12:17:55.923Z,12.53
2018-12-07T12:20:25.000Z,12.30
2018-12-07T12:22:54.150Z,11.97
2018-12-07T12:25:23.196Z,11.76
2018-12-07T12:27:52.234Z,11.57
2018-12-07T12:30:21.420Z,11.31
2018-12-07T12:32:50.240Z,11.11
2018-12-07T12:35:19.460Z,10.64
2018-12-07T12:37:48.516Z,9.84
2018-12-07T12:40:17.466Z,9.82
2018-12-07T12:42:46.591Z,9.87
2018-12-07T12:45:15.704Z,9.95
2018-12-07T12:47:44.879Z,9.64
2018-12-07T12:50:19.156Z,9.42
2018-12-07T12:52:48.156Z,9.60
2018-12-07T12:55:17.054Z,9.61
2018-12-07T12:57:45.895Z,9.41
2018-12-07T13:00:14.934Z,9.09
2018-12-07T13:02:43.776Z,8.87
2018-12-07T13:05:12.639Z,8.42
2018-12-07T13:07:41.632Z,7.97
2018-12-07T13:10:10.590Z,7.67
2018-12-07T13:12:39.400Z,7.46
2018-12-07T13:15:08.563Z,7.14
2018-12-07T13:17:37.471Z,7.18
2018-12-07T13:20:07.589Z,7.31
2018-12-07T13:22:36.563Z,7.41
2018-12-07T13:25:06.091Z,7.54
2018-12-07T13:27:34.920Z,7.51
2018-12-07T13:30:04.161Z,7.31
2018-12-07T13:32:33.045Z,7.30
2018-12-07T13:35:01.851Z,7.38
2018-12-07T13:37:30.828Z,7.48
2018-12-07T13:39:59.819Z,7.51
2018-12-07T13:42:28.949Z,7.32
2018-12-07T13:44:58.064Z,7.29
2018-12-07T13:47:27.326Z,7.23
2018-12-07T13:50:01.839Z,6.83
2018-12-07T13:52:31.073Z,6.94
2018-12-07T13:55:00.386Z,7.01
2018-12-07T13:57:29.830Z,6.95
2018-12-07T13:59:58.986Z,6.64
2018-12-07T14:02:28.216Z,6.70
2018-12-07T14:04:57.574Z,6.65
2018-12-07T14:07:26.727Z,6.55
2018-12-07T14:09:56.024Z,6.27
2018-12-07T14:12:25.282Z,6.14
2018-12-07T14:14:54.712Z,6.15
2018-12-07T14:17:23.924Z,5.99
2018-12-07T14:19:53.394Z,6.14
2018-12-07T14:22:22.658Z,5.82
2018-12-07T14:24:52.023Z,5.58
2018-12-07T14:27:21.311Z,5.79
2018-12-07T14:29:50.590Z,5.61
2018-12-07T14:32:19.942Z,5.66
2018-12-07T14:34:49.541Z,5.74
2018-12-07T14:37:18.772Z,5.80
2018-12-07T14:39:48.130Z,5.63
2018-12-07T14:42:17.374Z,5.72
2018-12-07T14:44:46.512Z,5.70
2018-12-07T14:47:15.713Z,5.72
2018-12-07T14:49:45.008Z,5.79
2018-12-07T14:52:14.341Z,5.62
2018-12-07T14:54:43.739Z,5.72
2018-12-07T14:57:13.039Z,5.53
2018-12-07T14:59:42.192Z,5.69
2018-12-07T15:02:11.429Z,5.65
2018-12-07T15:04:40.741Z,5.46
2018-12-07T15:07:09.897Z,5.35
2018-12-07T15:09:39.293Z,5.18
2018-12-07T15:12:08.442Z,5.08
2018-12-07T15:14:37.652Z,5.10
2018-12-07T15:17:06.669Z,5.05
2018-12-07T15:19:36.019Z,5.02
2018-12-07T15:22:04.978Z,4.98
2018-12-07T15:24:34.285Z,4.73
2018-12-07T15:27:03.690Z,4.78
2018-12-07T15:29:33.198Z,4.66
2018-12-07T15:32:02.587Z,4.50
2018-12-07T15:34:31.930Z,4.33
2018-12-07T15:37:01.570Z,4.20
2018-12-07T15:39:31.006Z,4.08
2018-12-07T15:42:00.356Z,3.96
2018-12-07T15:44:29.254Z,3.84
2018-12-07T15:46:58.588Z,3.76
2018-12-07T15:49:28.180Z,3.79
2018-12-07T15:51:57.177Z,3.63
2018-12-07T15:54:26.288Z,3.48
2018-12-07T15:56:55.276Z,3.38
2018-12-07T15:59:24.305Z,3.29
2018-12-07T16:01:53.343Z,3.18
2018-12-07T16:04:22.629Z,3.01
2018-12-07T16:06:51.815Z,2.92
2018-12-07T16:09:20.834Z,3.04
2018-12-07T16:11:49.802Z,3.03
2018-12-07T16:14:18.809Z,2.87
2018-12-07T16:16:47.737Z,2.70
2018-12-07T16:19:16.752Z,2.54
2018-12-07T16:21:46.116Z,2.54
2018-12-07T16:24:15.312Z,2.60
2018-12-07T16:26:44.746Z,2.65
2018-12-07T16:29:13.914Z,2.62
2018-12-07T16:31:43.340Z,2.48
2018-12-07T16:34:12.591Z,2.48
2018-12-07T16:36:41.809Z,2.46
2018-12-07T16:39:10.939Z,2.46
2018-12-07T16:41:40.149Z,2.54
2018-12-07T16:44:09.522Z,2.54
2018-12-07T16:46:38.617Z,2.59
2018-12-07T16:49:07.805Z,2.63
2018-12-07T16:51:37.059Z,2.63
2018-12-07T16:54:06.449Z,2.55
2018-12-07T16:56:35.607Z,2.55
2018-12-07T16:59:04.903Z,2.62
2018-12-07T17:01:34.016Z,2.75
2018-12-07T17:04:03.227Z,2.81
2018-12-07T17:06:32.681Z,2.75
2018-12-07T17:09:02.050Z,2.60
2018-12-07T17:11:32.396Z,2.69
2018-12-07T17:14:01.713Z,2.92
2018-12-07T17:16:30.869Z,2.88
2018-12-07T17:18:59.950Z,2.80
2018-12-07T17:21:30.123Z,2.43
2018-12-07T17:23:59.212Z,2.54
2018-12-07T17:26:28.461Z,2.79
2018-12-07T17:28:57.710Z,2.69
2018-12-07T17:31:26.904Z,2.77
2018-12-07T17:33:56.268Z,2.84
2018-12-07T17:36:25.780Z,2.68
2018-12-07T17:38:55.210Z,2.56
2018-12-07T17:41:25.251Z,2.46
2018-12-07T17:43:54.283Z,2.50
2018-12-07T17:46:24.986Z,2.46
2018-12-07T17:48:54.079Z,2.47
2018-12-07T17:51:25.250Z,2.49
2018-12-07T17:53:54.571Z,2.60
2018-12-07T17:56:24.003Z,2.47
2018-12-07T17:58:54.657Z,2.41
2018-12-07T18:01:23.654Z,2.44
2018-12-07T18:03:52.528Z,2.56
2018-12-07T18:06:21.693Z,2.56
2018-12-07T18:08:51.097Z,2.54
2018-12-07T18:11:20.153Z,2.47
2018-12-07T18:13:49.339Z,2.37
2018-12-07T18:16:18.469Z,2.32
2018-12-07T18:18:47.506Z,2.25
2018-12-07T18:21:16.724Z,2.15
2018-12-07T18:23:45.680Z,2.03
2018-12-07T18:26:14.629Z,1.92
2018-12-07T18:28:43.837Z,1.87
2018-12-07T18:31:12.887Z,1.83
2018-12-07T18:33:41.934Z,1.82
2018-12-07T18:36:11.115Z,1.77
2018-12-07T18:38:40.558Z,1.72
2018-12-07T18:41:09.690Z,1.65
2018-12-07T18:43:38.617Z,1.52
2018-12-07T18:46:08.011Z,1.55
2018-12-07T18:48:37.347Z,1.63
2018-12-07T18:51:07.066Z,1.61
2018-12-07T18:53:36.407Z,1.60
2018-12-07T18:56:05.765Z,1.62
2018-12-07T18:58:35.129Z,1.62
2018-12-07T19:01:04.679Z,1.58
2018-12-07T19:03:33.926Z,1.52
2018-12-07T19:06:03.373Z,1.50
2018-12-07T19:08:32.809Z,1.46
2018-12-07T19:11:02.384Z,1.41
2018-12-07T19:13:31.645Z,1.37
2018-12-07T19:16:01.117Z,1.37
2018-12-07T19:18:30.225Z,1.42
2018-12-07T19:20:59.427Z,1.37
2018-12-07T19:23:28.511Z,1.28
2018-12-07T19:25:57.667Z,1.24
2018-12-07T19:28:26.736Z,1.23
2018-12-07T19:30:56.374Z,1.22
2018-12-07T19:33:25.853Z,1.18
2018-12-07T19:35:55.386Z,1.22
2018-12-07T19:38:24.694Z,1.22
2018-12-07T19:40:54.260Z,1.14
2018-12-07T19:43:23.796Z,1.08
2018-12-07T19:45:53.313Z,1.04
2018-12-07T19:48:22.660Z,1.04
2018-12-07T19:50:51.876Z,1.00
2018-12-07T19:53:21.485Z,0.96
2018-12-07T19:55:51.059Z,0.92
2018-12-07T19:58:19.926Z,0.92
2018-12-07T20:00:48.871Z,0.89
2018-12-07T20:03:17.977Z,0.89
2018-12-07T20:05:47.031Z,0.97
2018-12-07T20:08:16.231Z,0.94
2018-12-07T20:10:45.376Z,0.90
2018-12-07T20:13:14.773Z,0.88
2018-12-07T20:15:44.194Z,0.86
2018-12-07T20:18:13.588Z,0.77
2018-12-07T20:20:42.889Z,0.70
2018-12-07T20:23:12.093Z,0.67
2018-12-07T20:25:41.234Z,0.60
2018-12-07T20:28:10.776Z,0.80
2018-12-07T20:30:40.420Z,0.77
2018-12-07T20:33:09.363Z,0.67
2018-12-07T20:35:38.570Z,0.69
2018-12-07T20:38:07.712Z,0.64
2018-12-07T20:40:36.625Z,0.63
2018-12-07T20:43:05.743Z,0.61
2018-12-07T20:45:34.962Z,0.65
2018-12-07T20:48:04.090Z,0.61
2018-12-07T20:50:33.616Z,0.53
2018-12-07T20:53:02.946Z,0.57
2018-12-07T20:55:32.345Z,0.51
2018-12-07T20:58:03.638Z,0.56
2018-12-07T21:00:32.660Z,0.54
2018-12-07T21:03:01.704Z,0.51
2018-12-07T21:07:51.473Z,0.43
2018-12-07T21:10:41.207Z,0.27
2018-12-07T21:17:19.157Z,0.39
2018-12-07T21:19:53.312Z,0.39
2018-12-07T21:22:22.691Z,0.35
2018-12-07T21:24:52.039Z,0.28
2018-12-07T21:27:21.202Z,0.30
2018-12-07T21:30:59.620Z,0.34
2018-12-07T21:33:53.150Z,0.26
2018-12-07T21:36:35.749Z,0.18
2018-12-07T21:39:09.590Z,0.13
2018-12-07T21:41:38.438Z,0.25
2018-12-07T21:44:07.511Z,0.29
2018-12-07T21:46:36.830Z,0.26
2018-12-07T21:49:05.897Z,0.21
2018-12-07T21:51:49.775Z,0.17
2018-12-07T21:54:18.910Z,0.25
2018-12-07T21:56:48.185Z,0.21
2018-12-07T21:59:17.530Z,0.05
2018-12-07T22:01:46.662Z,0.21
2018-12-07T22:04:15.877Z,0.22
2018-12-07T22:06:44.802Z,0.18
2018-12-07T22:09:14.243Z,0.11
2018-12-07T22:11:43.529Z,-0.13
2018-12-07T22:14:12.455Z,0.11
2018-12-07T22:16:41.282Z,0.16
2018-12-07T22:19:10.329Z,0.12
2018-12-07T22:21:39.700Z,0.08
2018-12-07T22:24:08.966Z,0.07
2018-12-07T22:26:37.991Z,0.12
2018-12-07T22:29:07.209Z,0.11
2018-12-07T22:31:36.490Z,0.11
2018-12-07T22:34:05.701Z,0.10
2018-12-07T22:36:35.055Z,0.14
2018-12-07T22:39:05.273Z,0.13
2018-12-07T22:41:34.373Z,0.11
2018-12-07T22:44:03.765Z,0.03
2018-12-07T22:46:32.985Z,-0.02
2018-12-07T22:49:02.224Z,0.08
2018-12-07T22:51:31.501Z,0.06
2018-12-07T22:54:00.569Z,-0.04
2018-12-07T22:56:29.417Z,-0.13
2018-12-07T22:58:58.246Z,-0.06
2018-12-07T23:01:27.648Z,-0.10
2018-12-07T23:03:56.656Z,-0.18
2018-12-07T23:06:25.612Z,-0.01
2018-12-07T23:08:54.364Z,0.06
2018-12-07T23:11:23.180Z,-0.02
2018-12-07T23:13:52.084Z,-0.08
2018-12-07T23:16:20.964Z,-0.03
2018-12-07T23:18:49.908Z,-0.04
2018-12-07T23:21:18.743Z,-0.02
2018-12-07T23:23:47.689Z,-0.06
2018-12-07T23:26:16.551Z,-0.07
2018-12-07T23:28:45.360Z,-0.08
2018-12-07T23:31:14.196Z,-0.10
2018-12-07T23:33:43.114Z,-0.09
2018-12-07T23:36:11.900Z,-0.26
2018-12-07T23:38:40.735Z,-0.17
2018-12-07T23:41:09.607Z,-0.04
2018-12-07T23:43:38.391Z,-0.06
2018-12-07T23:46:07.358Z,-0.08
2018-12-07T23:48:36.317Z,-0.10
2018-12-07T23:51:05.318Z,-0.17
2018-12-07T23:53:34.312Z,-0.19
2018-12-07T23:56:03.209Z,-0.18
2018-12-07T23:58:32.024Z,-0.21
